Terminal Aerodrome Forecast
Issued by NWS

Home | Current Version | Previous Version | Text Only | Print | Product List | Glossary On
Versions: 1 2 3 4 5 6 7 8 9 10 11 12 13 14 15 16 17 18
000
FTUS42 KTAE 281120
TAFABY
TAF
KABY 281120Z 2812/2912 30005KT P6SM SKC
     FM281500 31008G13KT P6SM SCT250
     FM290400 32004KT P6SM BKN100 BKN250
     FM290700 35002KT P6SM SKC=

USA.gov is the U.S. government's official web portal to all federal, state and local government web resources and services.